sensor_id;sensor_type;location;lat;lon;timestamp;temperature;humidity
42097;DHT22;27754;45.414;11.084;2022-10-23T00:01:45;18.40;80.00
42097;DHT22;27754;45.414;11.084;2022-10-23T00:04:14;18.30;80.20
42097;DHT22;27754;45.414;11.084;2022-10-23T00:06:41;18.30;80.40
42097;DHT22;27754;45.414;11.084;2022-10-23T00:09:11;18.30;80.80
42097;DHT22;27754;45.414;11.084;2022-10-23T00:11:39;18.30;81.00
42097;DHT22;27754;45.414;11.084;2022-10-23T00:14:07;18.20;81.30
42097;DHT22;27754;45.414;11.084;2022-10-23T00:16:35;18.10;81.60
42097;DHT22;27754;45.414;11.084;2022-10-23T00:19:02;18.20;81.70
42097;DHT22;27754;45.414;11.084;2022-10-23T00:21:29;18.20;81.90
42097;DHT22;27754;45.414;11.084;2022-10-23T00:23:56;18.10;82.00
42097;DHT22;27754;45.414;11.084;2022-10-23T00:26:23;18.10;82.20
42097;DHT22;27754;45.414;11.084;2022-10-23T00:28:52;18.10;82.30
42097;DHT22;27754;45.414;11.084;2022-10-23T00:31:20;18.00;82.40
42097;DHT22;27754;45.414;11.084;2022-10-23T00:33:48;18.00;82.50
42097;DHT22;27754;45.414;11.084;2022-10-23T00:36:17;18.00;82.70
42097;DHT22;27754;45.414;11.084;2022-10-23T00:38:45;17.90;82.90
42097;DHT22;27754;45.414;11.084;2022-10-23T00:41:30;17.90;83.00
42097;DHT22;27754;45.414;11.084;2022-10-23T00:44:09;17.90;83.00
42097;DHT22;27754;45.414;11.084;2022-10-23T00:46:38;17.90;83.10
42097;DHT22;27754;45.414;11.084;2022-10-23T00:49:06;17.90;83.10
42097;DHT22;27754;45.414;11.084;2022-10-23T00:51:46;17.90;83.10
42097;DHT22;27754;45.414;11.084;2022-10-23T00:54:17;17.90;83.00
42097;DHT22;27754;45.414;11.084;2022-10-23T00:56:58;17.90;83.00
42097;DHT22;27754;45.414;11.084;2022-10-23T00:59:26;17.90;82.90
42097;DHT22;27754;45.414;11.084;2022-10-23T01:01:53;17.90;82.90
42097;DHT22;27754;45.414;11.084;2022-10-23T01:04:21;17.90;82.80
42097;DHT22;27754;45.414;11.084;2022-10-23T01:09:41;18.00;82.90
42097;DHT22;27754;45.414;11.084;2022-10-23T01:15:17;18.00;83.10
42097;DHT22;27754;45.414;11.084;2022-10-23T01:17:54;17.90;83.50
42097;DHT22;27754;45.414;11.084;2022-10-23T01:32:08;17.40;85.60
42097;DHT22;27754;45.414;11.084;2022-10-23T01:34:49;17.40;85.80
42097;DHT22;27754;45.414;11.084;2022-10-23T01:37:23;17.30;86.10
42097;DHT22;27754;45.414;11.084;2022-10-23T01:39:52;17.30;86.30
42097;DHT22;27754;45.414;11.084;2022-10-23T01:42:27;17.30;86.70
42097;DHT22;27754;45.414;11.084;2022-10-23T01:45:03;17.30;86.70
42097;DHT22;27754;45.414;11.084;2022-10-23T01:47:41;17.30;86.80
42097;DHT22;27754;45.414;11.084;2022-10-23T01:50:13;17.30;86.80
42097;DHT22;27754;45.414;11.084;2022-10-23T01:52:43;17.30;86.70
42097;DHT22;27754;45.414;11.084;2022-10-23T01:55:11;17.30;86.50
42097;DHT22;27754;45.414;11.084;2022-10-23T01:57:41;17.40;86.50
42097;DHT22;27754;45.414;11.084;2022-10-23T02:00:13;17.40;86.60
42097;DHT22;27754;45.414;11.084;2022-10-23T02:02:53;17.40;86.60
42097;DHT22;27754;45.414;11.084;2022-10-23T02:05:28;17.40;86.60
42097;DHT22;27754;45.414;11.084;2022-10-23T02:07:57;17.40;86.70
42097;DHT22;27754;45.414;11.084;2022-10-23T02:10:33;17.40;86.80
42097;DHT22;27754;45.414;11.084;2022-10-23T02:13:15;17.30;87.10
42097;DHT22;27754;45.414;11.084;2022-10-23T02:21:41;17.10;87.40
42097;DHT22;27754;45.414;11.084;2022-10-23T02:24:14;17.10;87.40
42097;DHT22;27754;45.414;11.084;2022-10-23T02:26:54;17.10;87.60
42097;DHT22;27754;45.414;11.084;2022-10-23T02:29:34;17.10;87.40
42097;DHT22;27754;45.414;11.084;2022-10-23T02:32:06;17.10;87.30
42097;DHT22;27754;45.414;11.084;2022-10-23T02:34:34;17.10;87.30
42097;DHT22;27754;45.414;11.084;2022-10-23T02:37:02;17.00;87.50
42097;DHT22;27754;45.414;11.084;2022-10-23T02:39:29;17.10;87.30
42097;DHT22;27754;45.414;11.084;2022-10-23T02:45:10;16.90;87.70
42097;DHT22;27754;45.414;11.084;2022-10-23T02:48:32;16.90;88.20
42097;DHT22;27754;45.414;11.084;2022-10-23T02:50:51;16.90;88.20
42097;DHT22;27754;45.414;11.084;2022-10-23T02:59:26;16.80;88.20
42097;DHT22;27754;45.414;11.084;2022-10-23T03:02:14;16.90;88.00
42097;DHT22;27754;45.414;11.084;2022-10-23T03:04:43;16.90;88.10
42097;DHT22;27754;45.414;11.084;2022-10-23T03:07:12;16.90;88.00
42097;DHT22;27754;45.414;11.084;2022-10-23T03:09:41;16.90;88.00
42097;DHT22;27754;45.414;11.084;2022-10-23T03:12:08;16.90;88.00
42097;DHT22;27754;45.414;11.084;2022-10-23T03:14:35;16.90;88.00
42097;DHT22;27754;45.414;11.084;2022-10-23T03:17:04;16.90;87.90
42097;DHT22;27754;45.414;11.084;2022-10-23T03:19:31;17.00;87.90
42097;DHT22;27754;45.414;11.084;2022-10-23T03:21:58;17.00;87.70
42097;DHT22;27754;45.414;11.084;2022-10-23T03:24:25;16.90;87.80
42097;DHT22;27754;45.414;11.084;2022-10-23T03:26:51;16.90;88.00
42097;DHT22;27754;45.414;11.084;2022-10-23T03:29:27;16.90;88.10
42097;DHT22;27754;45.414;11.084;2022-10-23T03:31:54;16.90;88.30
42097;DHT22;27754;45.414;11.084;2022-10-23T03:34:22;16.80;88.20
42097;DHT22;27754;45.414;11.084;2022-10-23T03:36:51;16.80;88.30
42097;DHT22;27754;45.414;11.084;2022-10-23T03:39:19;16.80;88.30
42097;DHT22;27754;45.414;11.084;2022-10-23T03:41:47;16.80;88.20
42097;DHT22;27754;45.414;11.084;2022-10-23T03:44:15;16.80;88.50
42097;DHT22;27754;45.414;11.084;2022-10-23T03:46:43;16.80;88.60
42097;DHT22;27754;45.414;11.084;2022-10-23T03:49:10;16.70;88.10
42097;DHT22;27754;45.414;11.084;2022-10-23T03:51:41;16.60;88.60
42097;DHT22;27754;45.414;11.084;2022-10-23T03:54:10;16.60;88.90
42097;DHT22;27754;45.414;11.084;2022-10-23T03:56:37;16.60;89.20
42097;DHT22;27754;45.414;11.084;2022-10-23T03:59:07;16.60;89.10
42097;DHT22;27754;45.414;11.084;2022-10-23T04:01:34;16.60;89.00
42097;DHT22;27754;45.414;11.084;2022-10-23T04:04:01;16.60;89.10
42097;DHT22;27754;45.414;11.084;2022-10-23T04:06:28;16.60;89.20
42097;DHT22;27754;45.414;11.084;2022-10-23T04:08:57;16.60;89.30
42097;DHT22;27754;45.414;11.084;2022-10-23T04:11:24;16.70;89.30
42097;DHT22;27754;45.414;11.084;2022-10-23T04:13:51;16.70;89.10
42097;DHT22;27754;45.414;11.084;2022-10-23T04:16:18;16.70;89.10
42097;DHT22;27754;45.414;11.084;2022-10-23T04:18:45;16.70;89.20
42097;DHT22;27754;45.414;11.084;2022-10-23T04:21:12;16.70;88.90
42097;DHT22;27754;45.414;11.084;2022-10-23T04:23:39;16.60;89.20
42097;DHT22;27754;45.414;11.084;2022-10-23T04:26:15;16.60;89.20
42097;DHT22;27754;45.414;11.084;2022-10-23T04:28:42;16.60;89.30
42097;DHT22;27754;45.414;11.084;2022-10-23T04:31:09;16.60;89.30
42097;DHT22;27754;45.414;11.084;2022-10-23T04:33:39;16.50;89.30
42097;DHT22;27754;45.414;11.084;2022-10-23T04:36:06;16.60;89.40
42097;DHT22;27754;45.414;11.084;2022-10-23T04:38:33;16.60;89.40
42097;DHT22;27754;45.414;11.084;2022-10-23T04:41:01;16.60;89.10
42097;DHT22;27754;45.414;11.084;2022-10-23T04:43:28;16.50;89.20
42097;DHT22;27754;45.414;11.084;2022-10-23T04:45:55;16.50;89.10
42097;DHT22;27754;45.414;11.084;2022-10-23T04:48:22;16.50;89.10
42097;DHT22;27754;45.414;11.084;2022-10-23T04:51:33;16.50;88.80
42097;DHT22;27754;45.414;11.084;2022-10-23T04:54:20;16.40;89.10
42097;DHT22;27754;45.414;11.084;2022-10-23T04:57:08;16.30;89.50
42097;DHT22;27754;45.414;11.084;2022-10-23T04:59:52;16.30;89.50
42097;DHT22;27754;45.414;11.084;2022-10-23T05:02:19;16.30;89.60
42097;DHT22;27754;45.414;11.084;2022-10-23T05:04:48;16.30;89.90
42097;DHT22;27754;45.414;11.084;2022-10-23T05:07:35;16.40;89.90
42097;DHT22;27754;45.414;11.084;2022-10-23T05:10:23;16.40;89.90
42097;DHT22;27754;45.414;11.084;2022-10-23T05:13:00;16.40;89.90
42097;DHT22;27754;45.414;11.084;2022-10-23T05:15:27;16.40;89.90
42097;DHT22;27754;45.414;11.084;2022-10-23T05:17:57;16.40;89.80
42097;DHT22;27754;45.414;11.084;2022-10-23T05:20:28;16.40;89.70
42097;DHT22;27754;45.414;11.084;2022-10-23T05:22:57;16.50;89.60
42097;DHT22;27754;45.414;11.084;2022-10-23T05:25:25;16.50;89.50
42097;DHT22;27754;45.414;11.084;2022-10-23T05:28:01;16.50;89.40
42097;DHT22;27754;45.414;11.084;2022-10-23T05:30:28;16.60;89.10
42097;DHT22;27754;45.414;11.084;2022-10-23T05:32:55;16.60;89.00
42097;DHT22;27754;45.414;11.084;2022-10-23T05:35:25;16.50;89.00
42097;DHT22;27754;45.414;11.084;2022-10-23T05:37:52;16.40;89.30
42097;DHT22;27754;45.414;11.084;2022-10-23T05:40:22;16.40;89.50
42097;DHT22;27754;45.414;11.084;2022-10-23T05:42:55;16.40;89.50
42097;DHT22;27754;45.414;11.084;2022-10-23T05:45:42;16.30;89.60
42097;DHT22;27754;45.414;11.084;2022-10-23T05:48:33;16.40;89.80
42097;DHT22;27754;45.414;11.084;2022-10-23T05:51:39;16.40;89.80
42097;DHT22;27754;45.414;11.084;2022-10-23T05:54:20;16.40;89.60
42097;DHT22;27754;45.414;11.084;2022-10-23T05:56:57;16.40;89.70
42097;DHT22;27754;45.414;11.084;2022-10-23T05:59:40;16.40;89.60
42097;DHT22;27754;45.414;11.084;2022-10-23T06:02:25;16.40;89.60
42097;DHT22;27754;45.414;11.084;2022-10-23T06:05:00;16.40;89.40
42097;DHT22;27754;45.414;11.084;2022-10-23T06:07:42;16.40;89.50
42097;DHT22;27754;45.414;11.084;2022-10-23T06:10:10;16.40;89.50
42097;DHT22;27754;45.414;11.084;2022-10-23T06:12:42;16.40;89.60
42097;DHT22;27754;45.414;11.084;2022-10-23T06:15:13;16.30;89.50
42097;DHT22;27754;45.414;11.084;2022-10-23T06:18:03;16.40;89.50
42097;DHT22;27754;45.414;11.084;2022-10-23T06:20:37;16.40;89.40
42097;DHT22;27754;45.414;11.084;2022-10-23T06:23:09;16.40;89.60
42097;DHT22;27754;45.414;11.084;2022-10-23T06:26:03;16.40;89.60
42097;DHT22;27754;45.414;11.084;2022-10-23T06:28:38;16.50;89.50
42097;DHT22;27754;45.414;11.084;2022-10-23T06:31:09;16.60;89.50
42097;DHT22;27754;45.414;11.084;2022-10-23T06:33:36;16.70;89.10
42097;DHT22;27754;45.414;11.084;2022-10-23T06:36:05;16.80;89.10
42097;DHT22;27754;45.414;11.084;2022-10-23T06:38:34;16.80;88.90
42097;DHT22;27754;45.414;11.084;2022-10-23T06:41:06;16.90;88.80
42097;DHT22;27754;45.414;11.084;2022-10-23T06:43:36;16.90;88.70
42097;DHT22;27754;45.414;11.084;2022-10-23T06:46:25;17.00;88.60
42097;DHT22;27754;45.414;11.084;2022-10-23T06:49:33;17.20;88.30
42097;DHT22;27754;45.414;11.084;2022-10-23T06:52:01;17.20;88.20
42097;DHT22;27754;45.414;11.084;2022-10-23T06:54:28;17.30;88.00
42097;DHT22;27754;45.414;11.084;2022-10-23T06:56:57;17.30;88.20
42097;DHT22;27754;45.414;11.084;2022-10-23T06:59:36;17.40;88.20
42097;DHT22;27754;45.414;11.084;2022-10-23T07:02:05;17.40;87.60
42097;DHT22;27754;45.414;11.084;2022-10-23T07:04:32;17.60;87.50
42097;DHT22;27754;45.414;11.084;2022-10-23T07:07:01;17.70;87.10
42097;DHT22;27754;45.414;11.084;2022-10-23T07:09:37;17.80;86.40
42097;DHT22;27754;45.414;11.084;2022-10-23T07:12:20;18.00;85.90
42097;DHT22;27754;45.414;11.084;2022-10-23T07:14:53;18.20;85.70
42097;DHT22;27754;45.414;11.084;2022-10-23T07:17:20;18.40;85.40
42097;DHT22;27754;45.414;11.084;2022-10-23T07:19:48;18.50;84.60
42097;DHT22;27754;45.414;11.084;2022-10-23T07:22:15;18.60;84.30
42097;DHT22;27754;45.414;11.084;2022-10-23T07:25:04;18.80;84.40
42097;DHT22;27754;45.414;11.084;2022-10-23T07:27:36;18.90;83.70
42097;DHT22;27754;45.414;11.084;2022-10-23T07:30:06;18.90;83.10
42097;DHT22;27754;45.414;11.084;2022-10-23T07:32:43;19.00;82.70
42097;DHT22;27754;45.414;11.084;2022-10-23T07:35:29;19.10;83.20
42097;DHT22;27754;45.414;11.084;2022-10-23T07:38:07;19.30;83.40
42097;DHT22;27754;45.414;11.084;2022-10-23T07:40:40;19.40;83.30
42097;DHT22;27754;45.414;11.084;2022-10-23T07:43:09;19.50;83.30
42097;DHT22;27754;45.414;11.084;2022-10-23T07:45:36;19.60;82.80
42097;DHT22;27754;45.414;11.084;2022-10-23T07:48:15;19.70;81.70
42097;DHT22;27754;45.414;11.084;2022-10-23T07:51:10;19.70;81.80
42097;DHT22;27754;45.414;11.084;2022-10-23T07:53:43;19.70;82.00
42097;DHT22;27754;45.414;11.084;2022-10-23T07:56:26;19.80;81.90
42097;DHT22;27754;45.414;11.084;2022-10-23T07:59:27;19.80;82.50
42097;DHT22;27754;45.414;11.084;2022-10-23T08:01:57;19.80;82.30
42097;DHT22;27754;45.414;11.084;2022-10-23T08:04:31;20.00;82.00
42097;DHT22;27754;45.414;11.084;2022-10-23T08:07:05;20.10;81.00
42097;DHT22;27754;45.414;11.084;2022-10-23T08:09:38;20.30;78.60
42097;DHT22;27754;45.414;11.084;2022-10-23T08:12:08;20.30;78.40
42097;DHT22;27754;45.414;11.084;2022-10-23T08:14:35;20.40;78.30
42097;DHT22;27754;45.414;11.084;2022-10-23T08:17:02;20.60;78.10
42097;DHT22;27754;45.414;11.084;2022-10-23T08:19:49;20.80;77.50
42097;DHT22;27754;45.414;11.084;2022-10-23T08:22:18;20.90;76.60
42097;DHT22;27754;45.414;11.084;2022-10-23T08:24:46;20.90;76.40
42097;DHT22;27754;45.414;11.084;2022-10-23T08:27:13;21.00;76.40
42097;DHT22;27754;45.414;11.084;2022-10-23T08:29:44;21.10;75.50
42097;DHT22;27754;45.414;11.084;2022-10-23T08:32:11;21.30;75.10
42097;DHT22;27754;45.414;11.084;2022-10-23T08:34:53;21.40;75.20
42097;DHT22;27754;45.414;11.084;2022-10-23T08:37:22;21.30;75.90
42097;DHT22;27754;45.414;11.084;2022-10-23T08:39:49;21.40;75.70
42097;DHT22;27754;45.414;11.084;2022-10-23T08:42:25;21.40;75.30
42097;DHT22;27754;45.414;11.084;2022-10-23T08:45:07;21.30;74.80
42097;DHT22;27754;45.414;11.084;2022-10-23T08:47:41;21.30;75.10
42097;DHT22;27754;45.414;11.084;2022-10-23T08:50:31;21.30;75.30
42097;DHT22;27754;45.414;11.084;2022-10-23T08:53:21;21.30;75.40
42097;DHT22;27754;45.414;11.084;2022-10-23T08:56:11;21.10;74.60
42097;DHT22;27754;45.414;11.084;2022-10-23T08:58:46;21.20;74.60
42097;DHT22;27754;45.414;11.084;2022-10-23T09:01:35;21.40;74.50
42097;DHT22;27754;45.414;11.084;2022-10-23T09:04:04;21.60;73.80
42097;DHT22;27754;45.414;11.084;2022-10-23T09:12:16;21.40;73.70
42097;DHT22;27754;45.414;11.084;2022-10-23T09:17:45;21.40;73.50
42097;DHT22;27754;45.414;11.084;2022-10-23T09:20:25;21.30;74.00
42097;DHT22;27754;45.414;11.084;2022-10-23T09:25:40;21.70;74.00
42097;DHT22;27754;45.414;11.084;2022-10-23T09:28:15;21.80;73.50
42097;DHT22;27754;45.414;11.084;2022-10-23T09:30:43;22.00;73.20
42097;DHT22;27754;45.414;11.084;2022-10-23T09:38:30;22.00;72.30
42097;DHT22;27754;45.414;11.084;2022-10-23T09:41:18;22.10;72.30
42097;DHT22;27754;45.414;11.084;2022-10-23T09:43:45;22.30;72.30
42097;DHT22;27754;45.414;11.084;2022-10-23T09:46:18;22.30;72.10
42097;DHT22;27754;45.414;11.084;2022-10-23T09:48:45;22.10;72.20
42097;DHT22;27754;45.414;11.084;2022-10-23T09:51:27;22.30;72.20
42097;DHT22;27754;45.414;11.084;2022-10-23T09:53:56;22.40;71.40
42097;DHT22;27754;45.414;11.084;2022-10-23T09:58:58;22.30;72.10
42097;DHT22;27754;45.414;11.084;2022-10-23T10:01:31;22.40;71.80
42097;DHT22;27754;45.414;11.084;2022-10-23T10:04:18;22.30;72.00
42097;DHT22;27754;45.414;11.084;2022-10-23T10:06:45;22.40;72.80
42097;DHT22;27754;45.414;11.084;2022-10-23T10:09:31;22.70;72.20
42097;DHT22;27754;45.414;11.084;2022-10-23T10:12:14;22.80;71.40
42097;DHT22;27754;45.414;11.084;2022-10-23T10:17:43;22.80;71.30
42097;DHT22;27754;45.414;11.084;2022-10-23T10:20:41;22.80;71.00
42097;DHT22;27754;45.414;11.084;2022-10-23T10:26:02;22.50;71.90
42097;DHT22;27754;45.414;11.084;2022-10-23T10:29:14;22.50;72.30
42097;DHT22;27754;45.414;11.084;2022-10-23T10:39:40;22.80;71.90
42097;DHT22;27754;45.414;11.084;2022-10-23T10:45:26;22.80;71.80
42097;DHT22;27754;45.414;11.084;2022-10-23T10:56:38;22.90;70.90
42097;DHT22;27754;45.414;11.084;2022-10-23T10:59:36;22.90;71.10
42097;DHT22;27754;45.414;11.084;2022-10-23T11:02:37;22.70;71.40
42097;DHT22;27754;45.414;11.084;2022-10-23T11:07:41;22.70;71.80
42097;DHT22;27754;45.414;11.084;2022-10-23T11:10:15;22.70;71.70
42097;DHT22;27754;45.414;11.084;2022-10-23T11:12:44;22.50;72.00
42097;DHT22;27754;45.414;11.084;2022-10-23T11:15:15;22.70;72.00
42097;DHT22;27754;45.414;11.084;2022-10-23T11:17:49;22.70;71.40
42097;DHT22;27754;45.414;11.084;2022-10-23T11:32:22;23.20;69.70
42097;DHT22;27754;45.414;11.084;2022-10-23T11:37:21;23.30;69.30
42097;DHT22;27754;45.414;11.084;2022-10-23T11:40:13;23.20;70.10
42097;DHT22;27754;45.414;11.084;2022-10-23T11:42:44;22.90;70.10
42097;DHT22;27754;45.414;11.084;2022-10-23T11:48:19;22.90;70.70
42097;DHT22;27754;45.414;11.084;2022-10-23T11:56:23;23.00;70.70
42097;DHT22;27754;45.414;11.084;2022-10-23T11:58:55;23.10;70.30
42097;DHT22;27754;45.414;11.084;2022-10-23T12:01:44;23.10;70.70
42097;DHT22;27754;45.414;11.084;2022-10-23T12:06:52;23.40;69.70
42097;DHT22;27754;45.414;11.084;2022-10-23T12:09:50;23.60;68.90
42097;DHT22;27754;45.414;11.084;2022-10-23T12:12:37;23.70;68.90
42097;DHT22;27754;45.414;11.084;2022-10-23T12:17:42;23.60;69.00
42097;DHT22;27754;45.414;11.084;2022-10-23T12:25:38;23.70;69.20
42097;DHT22;27754;45.414;11.084;2022-10-23T12:39:25;23.90;68.60
42097;DHT22;27754;45.414;11.084;2022-10-23T12:41:52;23.90;67.90
42097;DHT22;27754;45.414;11.084;2022-10-23T12:44:20;23.90;67.70
42097;DHT22;27754;45.414;11.084;2022-10-23T12:46:49;23.80;68.00
42097;DHT22;27754;45.414;11.084;2022-10-23T12:49:22;23.80;67.90
42097;DHT22;27754;45.414;11.084;2022-10-23T12:51:59;23.90;68.20
42097;DHT22;27754;45.414;11.084;2022-10-23T12:54:29;23.80;68.80
42097;DHT22;27754;45.414;11.084;2022-10-23T12:56:56;23.60;68.80
42097;DHT22;27754;45.414;11.084;2022-10-23T12:59:27;23.60;69.20
42097;DHT22;27754;45.414;11.084;2022-10-23T13:01:57;23.60;69.20
42097;DHT22;27754;45.414;11.084;2022-10-23T13:04:32;23.80;69.00
42097;DHT22;27754;45.414;11.084;2022-10-23T13:07:01;23.80;68.70
42097;DHT22;27754;45.414;11.084;2022-10-23T13:09:36;23.90;68.50
42097;DHT22;27754;45.414;11.084;2022-10-23T13:12:19;23.80;68.00
42097;DHT22;27754;45.414;11.084;2022-10-23T13:15:01;23.70;68.90
42097;DHT22;27754;45.414;11.084;2022-10-23T13:20:38;23.70;68.90
42097;DHT22;27754;45.414;11.084;2022-10-23T13:23:28;23.60;69.40
42097;DHT22;27754;45.414;11.084;2022-10-23T13:28:50;23.40;69.90
42097;DHT22;27754;45.414;11.084;2022-10-23T13:31:28;23.40;70.10
42097;DHT22;27754;45.414;11.084;2022-10-23T13:36:33;23.30;69.80
42097;DHT22;27754;45.414;11.084;2022-10-23T13:39:13;23.30;69.90
42097;DHT22;27754;45.414;11.084;2022-10-23T13:41:43;23.30;70.20
42097;DHT22;27754;45.414;11.084;2022-10-23T13:44:15;23.20;70.20
42097;DHT22;27754;45.414;11.084;2022-10-23T13:46:43;23.10;70.70
42097;DHT22;27754;45.414;11.084;2022-10-23T13:49:10;23.00;70.80
42097;DHT22;27754;45.414;11.084;2022-10-23T13:51:50;23.10;71.10
42097;DHT22;27754;45.414;11.084;2022-10-23T13:54:23;23.10;71.10
42097;DHT22;27754;45.414;11.084;2022-10-23T13:56:51;23.10;71.00
42097;DHT22;27754;45.414;11.084;2022-10-23T13:59:19;23.20;71.10
42097;DHT22;27754;45.414;11.084;2022-10-23T14:01:47;23.20;71.10
42097;DHT22;27754;45.414;11.084;2022-10-23T14:04:16;23.30;70.60
42097;DHT22;27754;45.414;11.084;2022-10-23T14:06:43;23.30;70.70
42097;DHT22;27754;45.414;11.084;2022-10-23T14:09:14;23.30;70.80
42097;DHT22;27754;45.414;11.084;2022-10-23T14:11:42;23.30;70.60
42097;DHT22;27754;45.414;11.084;2022-10-23T14:14:09;23.30;70.70
42097;DHT22;27754;45.414;11.084;2022-10-23T14:16:36;23.20;70.50
42097;DHT22;27754;45.414;11.084;2022-10-23T14:19:03;23.30;71.10
42097;DHT22;27754;45.414;11.084;2022-10-23T14:21:30;23.20;71.20
42097;DHT22;27754;45.414;11.084;2022-10-23T14:23:57;23.20;71.20
42097;DHT22;27754;45.414;11.084;2022-10-23T14:26:28;23.20;71.40
42097;DHT22;27754;45.414;11.084;2022-10-23T14:28:57;23.10;71.60
42097;DHT22;27754;45.414;11.084;2022-10-23T14:31:32;23.10;71.60
42097;DHT22;27754;45.414;11.084;2022-10-23T14:33:59;23.10;71.60
42097;DHT22;27754;45.414;11.084;2022-10-23T14:36:27;23.10;71.50
42097;DHT22;27754;45.414;11.084;2022-10-23T14:39:14;23.10;71.30
42097;DHT22;27754;45.414;11.084;2022-10-23T14:41:41;23.00;71.30
42097;DHT22;27754;45.414;11.084;2022-10-23T14:44:08;23.00;71.50
42097;DHT22;27754;45.414;11.084;2022-10-23T14:46:35;23.00;71.60
42097;DHT22;27754;45.414;11.084;2022-10-23T14:49:04;23.00;71.60
42097;DHT22;27754;45.414;11.084;2022-10-23T14:51:31;22.90;71.90
42097;DHT22;27754;45.414;11.084;2022-10-23T14:54:05;23.00;72.20
42097;DHT22;27754;45.414;11.084;2022-10-23T14:56:35;23.00;72.40
42097;DHT22;27754;45.414;11.084;2022-10-23T14:59:03;22.90;72.50
42097;DHT22;27754;45.414;11.084;2022-10-23T15:01:36;22.90;72.50
42097;DHT22;27754;45.414;11.084;2022-10-23T15:04:11;22.90;72.40
42097;DHT22;27754;45.414;11.084;2022-10-23T15:06:41;22.80;72.50
42097;DHT22;27754;45.414;11.084;2022-10-23T15:09:08;22.80;72.60
42097;DHT22;27754;45.414;11.084;2022-10-23T15:11:35;22.80;72.60
42097;DHT22;27754;45.414;11.084;2022-10-23T15:14:02;22.80;72.70
42097;DHT22;27754;45.414;11.084;2022-10-23T15:16:29;22.70;72.70
42097;DHT22;27754;45.414;11.084;2022-10-23T15:18:56;22.70;72.60
42097;DHT22;27754;45.414;11.084;2022-10-23T15:21:23;22.70;72.60
42097;DHT22;27754;45.414;11.084;2022-10-23T15:23:50;22.60;72.50
42097;DHT22;27754;45.414;11.084;2022-10-23T15:26:19;22.60;72.70
42097;DHT22;27754;45.414;11.084;2022-10-23T15:28:53;22.50;72.70
42097;DHT22;27754;45.414;11.084;2022-10-23T15:31:39;22.60;72.90
42097;DHT22;27754;45.414;11.084;2022-10-23T15:34:09;22.50;73.00
42097;DHT22;27754;45.414;11.084;2022-10-23T15:36:37;22.40;73.20
42097;DHT22;27754;45.414;11.084;2022-10-23T15:39:08;22.40;73.30
42097;DHT22;27754;45.414;11.084;2022-10-23T15:41:37;22.30;73.40
42097;DHT22;27754;45.414;11.084;2022-10-23T15:44:06;22.30;73.60
42097;DHT22;27754;45.414;11.084;2022-10-23T15:46:33;22.20;73.80
42097;DHT22;27754;45.414;11.084;2022-10-23T15:49:01;22.10;74.00
42097;DHT22;27754;45.414;11.084;2022-10-23T15:51:28;22.10;74.10
42097;DHT22;27754;45.414;11.084;2022-10-23T15:53:55;22.00;74.20
42097;DHT22;27754;45.414;11.084;2022-10-23T15:56:23;21.90;74.30
42097;DHT22;27754;45.414;11.084;2022-10-23T15:58:51;21.90;74.50
42097;DHT22;27754;45.414;11.084;2022-10-23T16:01:18;21.80;74.70
42097;DHT22;27754;45.414;11.084;2022-10-23T16:03:45;21.80;75.10
42097;DHT22;27754;45.414;11.084;2022-10-23T16:06:14;21.70;75.30
42097;DHT22;27754;45.414;11.084;2022-10-23T16:08:42;21.70;75.50
42097;DHT22;27754;45.414;11.084;2022-10-23T16:13:44;21.50;75.70
42097;DHT22;27754;45.414;11.084;2022-10-23T16:16:12;21.50;75.70
42097;DHT22;27754;45.414;11.084;2022-10-23T16:18:41;21.40;76.00
42097;DHT22;27754;45.414;11.084;2022-10-23T16:23:43;21.30;76.30
42097;DHT22;27754;45.414;11.084;2022-10-23T16:26:10;21.30;76.50
42097;DHT22;27754;45.414;11.084;2022-10-23T16:28:37;21.20;76.50
42097;DHT22;27754;45.414;11.084;2022-10-23T16:31:12;21.20;76.70
42097;DHT22;27754;45.414;11.084;2022-10-23T16:33:46;21.10;77.10
42097;DHT22;27754;45.414;11.084;2022-10-23T16:36:14;21.10;77.10
42097;DHT22;27754;45.414;11.084;2022-10-23T16:39:01;21.10;77.40
42097;DHT22;27754;45.414;11.084;2022-10-23T16:41:47;21.00;77.70
42097;DHT22;27754;45.414;11.084;2022-10-23T16:44:16;21.00;77.90
42097;DHT22;27754;45.414;11.084;2022-10-23T16:46:55;20.90;78.20
42097;DHT22;27754;45.414;11.084;2022-10-23T16:49:22;20.90;78.40
42097;DHT22;27754;45.414;11.084;2022-10-23T16:51:49;20.80;78.70
42097;DHT22;27754;45.414;11.084;2022-10-23T16:54:16;20.80;78.70
42097;DHT22;27754;45.414;11.084;2022-10-23T16:56:43;20.80;79.10
42097;DHT22;27754;45.414;11.084;2022-10-23T16:59:10;20.80;79.10
42097;DHT22;27754;45.414;11.084;2022-10-23T17:01:37;20.70;79.30
42097;DHT22;27754;45.414;11.084;2022-10-23T17:04:05;20.70;79.60
42097;DHT22;27754;45.414;11.084;2022-10-23T17:06:34;20.70;79.50
42097;DHT22;27754;45.414;11.084;2022-10-23T17:09:02;20.60;79.60
42097;DHT22;27754;45.414;11.084;2022-10-23T17:11:35;20.60;79.80
42097;DHT22;27754;45.414;11.084;2022-10-23T17:14:09;20.50;80.10
42097;DHT22;27754;45.414;11.084;2022-10-23T17:16:40;20.50;80.20
42097;DHT22;27754;45.414;11.084;2022-10-23T17:19:08;20.30;80.80
42097;DHT22;27754;45.414;11.084;2022-10-23T17:21:55;20.30;80.90
42097;DHT22;27754;45.414;11.084;2022-10-23T17:24:22;20.30;80.90
42097;DHT22;27754;45.414;11.084;2022-10-23T17:26:50;20.30;80.80
42097;DHT22;27754;45.414;11.084;2022-10-23T17:29:18;20.20;81.10
42097;DHT22;27754;45.414;11.084;2022-10-23T17:31:49;20.10;81.30
42097;DHT22;27754;45.414;11.084;2022-10-23T17:34:19;20.10;81.20
42097;DHT22;27754;45.414;11.084;2022-10-23T17:36:50;20.00;81.50
42097;DHT22;27754;45.414;11.084;2022-10-23T17:39:20;20.00;82.10
42097;DHT22;27754;45.414;11.084;2022-10-23T17:41:47;20.00;82.10
42097;DHT22;27754;45.414;11.084;2022-10-23T17:44:15;19.80;82.60
42097;DHT22;27754;45.414;11.084;2022-10-23T17:46:42;19.80;82.70
42097;DHT22;27754;45.414;11.084;2022-10-23T17:49:09;19.70;83.10
42097;DHT22;27754;45.414;11.084;2022-10-23T17:51:37;19.60;83.20
42097;DHT22;27754;45.414;11.084;2022-10-23T17:54:06;19.60;83.10
42097;DHT22;27754;45.414;11.084;2022-10-23T17:56:35;19.50;83.50
42097;DHT22;27754;45.414;11.084;2022-10-23T17:59:21;19.40;83.60
42097;DHT22;27754;45.414;11.084;2022-10-23T18:01:48;19.30;83.90
42097;DHT22;27754;45.414;11.084;2022-10-23T18:04:18;19.20;84.20
42097;DHT22;27754;45.414;11.084;2022-10-23T18:06:48;19.20;84.30
42097;DHT22;27754;45.414;11.084;2022-10-23T18:09:16;19.20;84.30